sensor_id;sensor_type;location;lat;lon;timestamp;P1;durP1;ratioP1;P2;durP2;ratioP2
54235;SDS011;40151;43.606;1.472;2023-04-06T00:01:25;7.15;;;6.13;;
54235;SDS011;40151;43.606;1.472;2023-04-06T00:03:50;7.43;;;6.63;;
54235;SDS011;40151;43.606;1.472;2023-04-06T00:06:16;6.60;;;5.70;;
54235;SDS011;40151;43.606;1.472;2023-04-06T00:08:42;7.15;;;5.65;;
54235;SDS011;40151;43.606;1.472;2023-04-06T00:11:08;6.55;;;5.85;;
54235;SDS011;40151;43.606;1.472;2023-04-06T00:13:33;7.45;;;5.68;;
54235;SDS011;40151;43.606;1.472;2023-04-06T00:15:59;7.25;;;5.63;;
54235;SDS011;40151;43.606;1.472;2023-04-06T00:18:24;5.90;;;5.30;;
54235;SDS011;40151;43.606;1.472;2023-04-06T00:20:50;7.85;;;5.43;;
54235;SDS011;40151;43.606;1.472;2023-04-06T00:23:16;6.32;;;5.47;;
54235;SDS011;40151;43.606;1.472;2023-04-06T00:25:41;6.32;;;5.65;;
54235;SDS011;40151;43.606;1.472;2023-04-06T00:28:07;5.88;;;4.97;;
54235;SDS011;40151;43.606;1.472;2023-04-06T00:30:32;6.68;;;5.38;;
54235;SDS011;40151;43.606;1.472;2023-04-06T00:32:58;6.65;;;5.75;;
54235;SDS011;40151;43.606;1.472;2023-04-06T00:35:23;5.88;;;5.28;;
54235;SDS011;40151;43.606;1.472;2023-04-06T00:37:49;6.50;;;5.38;;
54235;SDS011;40151;43.606;1.472;2023-04-06T00:40:14;7.28;;;5.20;;
54235;SDS011;40151;43.606;1.472;2023-04-06T00:42:40;6.85;;;5.57;;
54235;SDS011;40151;43.606;1.472;2023-04-06T00:45:06;7.22;;;5.18;;
54235;SDS011;40151;43.606;1.472;2023-04-06T00:47:33;6.72;;;5.38;;
54235;SDS011;40151;43.606;1.472;2023-04-06T00:49:58;6.43;;;5.40;;
54235;SDS011;40151;43.606;1.472;2023-04-06T00:52:24;6.78;;;5.05;;
54235;SDS011;40151;43.606;1.472;2023-04-06T00:54:50;6.00;;;5.18;;
54235;SDS011;40151;43.606;1.472;2023-04-06T00:57:16;6.20;;;5.15;;
54235;SDS011;40151;43.606;1.472;2023-04-06T00:59:42;7.75;;;5.13;;
54235;SDS011;40151;43.606;1.472;2023-04-06T01:02:08;6.90;;;4.82;;
54235;SDS011;40151;43.606;1.472;2023-04-06T01:04:34;6.72;;;4.88;;
54235;SDS011;40151;43.606;1.472;2023-04-06T01:06:59;6.72;;;5.38;;
54235;SDS011;40151;43.606;1.472;2023-04-06T01:09:27;6.68;;;5.18;;
54235;SDS011;40151;43.606;1.472;2023-04-06T01:11:54;6.13;;;4.47;;
54235;SDS011;40151;43.606;1.472;2023-04-06T01:14:21;5.10;;;4.50;;
54235;SDS011;40151;43.606;1.472;2023-04-06T01:16:47;6.68;;;5.00;;
54235;SDS011;40151;43.606;1.472;2023-04-06T01:19:12;5.97;;;4.85;;
54235;SDS011;40151;43.606;1.472;2023-04-06T01:21:39;6.18;;;4.93;;
54235;SDS011;40151;43.606;1.472;2023-04-06T01:24:06;6.15;;;4.80;;
54235;SDS011;40151;43.606;1.472;2023-04-06T01:26:32;6.30;;;4.82;;
54235;SDS011;40151;43.606;1.472;2023-04-06T01:28:59;6.07;;;4.57;;
54235;SDS011;40151;43.606;1.472;2023-04-06T01:31:25;5.90;;;4.60;;
54235;SDS011;40151;43.606;1.472;2023-04-06T01:33:51;6.35;;;4.47;;
54235;SDS011;40151;43.606;1.472;2023-04-06T01:36:17;8.45;;;4.68;;
54235;SDS011;40151;43.606;1.472;2023-04-06T01:38:43;6.07;;;5.10;;
54235;SDS011;40151;43.606;1.472;2023-04-06T01:41:08;6.18;;;4.25;;
54235;SDS011;40151;43.606;1.472;2023-04-06T01:43:34;5.55;;;4.50;;
54235;SDS011;40151;43.606;1.472;2023-04-06T01:46:00;4.97;;;4.25;;
54235;SDS011;40151;43.606;1.472;2023-04-06T01:48:28;7.10;;;5.10;;
54235;SDS011;40151;43.606;1.472;2023-04-06T01:50:54;5.95;;;4.30;;
54235;SDS011;40151;43.606;1.472;2023-04-06T01:53:20;5.55;;;4.70;;
54235;SDS011;40151;43.606;1.472;2023-04-06T01:55:46;6.10;;;4.88;;
54235;SDS011;40151;43.606;1.472;2023-04-06T01:58:12;5.63;;;4.10;;
54235;SDS011;40151;43.606;1.472;2023-04-06T02:00:38;5.90;;;4.10;;
54235;SDS011;40151;43.606;1.472;2023-04-06T02:03:03;5.85;;;4.30;;
54235;SDS011;40151;43.606;1.472;2023-04-06T02:05:29;5.57;;;4.10;;
54235;SDS011;40151;43.606;1.472;2023-04-06T02:07:56;5.25;;;4.07;;
54235;SDS011;40151;43.606;1.472;2023-04-06T02:10:22;5.70;;;4.30;;
54235;SDS011;40151;43.606;1.472;2023-04-06T02:12:48;5.00;;;4.20;;
54235;SDS011;40151;43.606;1.472;2023-04-06T02:15:14;4.90;;;4.00;;
54235;SDS011;40151;43.606;1.472;2023-04-06T02:17:40;5.88;;;4.00;;
54235;SDS011;40151;43.606;1.472;2023-04-06T02:20:07;4.70;;;3.97;;
54235;SDS011;40151;43.606;1.472;2023-04-06T02:22:33;5.28;;;4.00;;
54235;SDS011;40151;43.606;1.472;2023-04-06T02:24:59;6.28;;;4.00;;
54235;SDS011;40151;43.606;1.472;2023-04-06T02:27:24;5.22;;;3.67;;
54235;SDS011;40151;43.606;1.472;2023-04-06T02:29:50;6.22;;;3.95;;
54235;SDS011;40151;43.606;1.472;2023-04-06T02:32:15;5.13;;;4.03;;
54235;SDS011;40151;43.606;1.472;2023-04-06T02:34:41;4.95;;;3.92;;
54235;SDS011;40151;43.606;1.472;2023-04-06T02:37:06;4.53;;;3.58;;
54235;SDS011;40151;43.606;1.472;2023-04-06T02:39:32;6.10;;;4.20;;
54235;SDS011;40151;43.606;1.472;2023-04-06T02:41:57;5.15;;;3.85;;
54235;SDS011;40151;43.606;1.472;2023-04-06T02:44:23;4.82;;;3.67;;
54235;SDS011;40151;43.606;1.472;2023-04-06T02:46:48;5.32;;;3.70;;
54235;SDS011;40151;43.606;1.472;2023-04-06T02:49:13;4.90;;;3.35;;
54235;SDS011;40151;43.606;1.472;2023-04-06T02:51:39;4.80;;;3.70;;
54235;SDS011;40151;43.606;1.472;2023-04-06T02:54:05;4.63;;;3.90;;
54235;SDS011;40151;43.606;1.472;2023-04-06T02:56:30;5.00;;;3.63;;
54235;SDS011;40151;43.606;1.472;2023-04-06T02:58:55;5.45;;;3.78;;
54235;SDS011;40151;43.606;1.472;2023-04-06T03:01:21;5.00;;;3.60;;
54235;SDS011;40151;43.606;1.472;2023-04-06T03:03:46;4.32;;;3.35;;
54235;SDS011;40151;43.606;1.472;2023-04-06T03:06:12;5.85;;;3.83;;
54235;SDS011;40151;43.606;1.472;2023-04-06T03:08:37;4.75;;;3.40;;
54235;SDS011;40151;43.606;1.472;2023-04-06T03:11:03;5.25;;;3.80;;
54235;SDS011;40151;43.606;1.472;2023-04-06T03:13:28;4.88;;;3.65;;
54235;SDS011;40151;43.606;1.472;2023-04-06T03:15:54;4.68;;;3.35;;
54235;SDS011;40151;43.606;1.472;2023-04-06T03:18:23;5.07;;;3.53;;
54235;SDS011;40151;43.606;1.472;2023-04-06T03:20:49;5.97;;;3.20;;
54235;SDS011;40151;43.606;1.472;2023-04-06T03:23:15;4.45;;;3.47;;
54235;SDS011;40151;43.606;1.472;2023-04-06T03:25:40;4.70;;;3.10;;
54235;SDS011;40151;43.606;1.472;2023-04-06T03:28:06;5.15;;;3.53;;
54235;SDS011;40151;43.606;1.472;2023-04-06T03:30:31;5.28;;;3.70;;
54235;SDS011;40151;43.606;1.472;2023-04-06T03:32:57;4.75;;;3.25;;
54235;SDS011;40151;43.606;1.472;2023-04-06T03:35:22;4.63;;;3.30;;
54235;SDS011;40151;43.606;1.472;2023-04-06T03:37:48;5.00;;;3.40;;
54235;SDS011;40151;43.606;1.472;2023-04-06T03:40:13;4.40;;;3.05;;
54235;SDS011;40151;43.606;1.472;2023-04-06T03:42:38;4.30;;;3.00;;
54235;SDS011;40151;43.606;1.472;2023-04-06T03:45:04;4.82;;;3.70;;
54235;SDS011;40151;43.606;1.472;2023-04-06T03:47:30;4.40;;;3.42;;
54235;SDS011;40151;43.606;1.472;2023-04-06T03:49:55;4.85;;;3.10;;
54235;SDS011;40151;43.606;1.472;2023-04-06T03:52:21;4.03;;;3.08;;
54235;SDS011;40151;43.606;1.472;2023-04-06T03:54:48;4.28;;;2.95;;
54235;SDS011;40151;43.606;1.472;2023-04-06T03:57:13;4.30;;;2.85;;
54235;SDS011;40151;43.606;1.472;2023-04-06T03:59:39;4.68;;;2.92;;
54235;SDS011;40151;43.606;1.472;2023-04-06T04:02:05;4.45;;;2.85;;
54235;SDS011;40151;43.606;1.472;2023-04-06T04:04:30;4.25;;;3.03;;
54235;SDS011;40151;43.606;1.472;2023-04-06T04:06:56;4.30;;;3.05;;
54235;SDS011;40151;43.606;1.472;2023-04-06T04:09:21;5.18;;;2.88;;
54235;SDS011;40151;43.606;1.472;2023-04-06T04:11:47;4.10;;;3.13;;
54235;SDS011;40151;43.606;1.472;2023-04-06T04:14:12;4.35;;;3.15;;
54235;SDS011;40151;43.606;1.472;2023-04-06T04:16:37;3.63;;;2.83;;
54235;SDS011;40151;43.606;1.472;2023-04-06T04:19:04;4.50;;;3.15;;
54235;SDS011;40151;43.606;1.472;2023-04-06T04:21:30;4.70;;;3.15;;
54235;SDS011;40151;43.606;1.472;2023-04-06T04:23:56;5.10;;;3.17;;
54235;SDS011;40151;43.606;1.472;2023-04-06T04:26:22;4.82;;;3.53;;
54235;SDS011;40151;43.606;1.472;2023-04-06T04:28:47;4.28;;;2.80;;
54235;SDS011;40151;43.606;1.472;2023-04-06T04:31:12;3.75;;;2.72;;
54235;SDS011;40151;43.606;1.472;2023-04-06T04:33:38;4.43;;;2.85;;
54235;SDS011;40151;43.606;1.472;2023-04-06T04:36:03;4.28;;;3.00;;
54235;SDS011;40151;43.606;1.472;2023-04-06T04:38:29;4.55;;;2.78;;
54235;SDS011;40151;43.606;1.472;2023-04-06T04:40:55;4.57;;;3.08;;
54235;SDS011;40151;43.606;1.472;2023-04-06T04:43:20;3.58;;;2.72;;
54235;SDS011;40151;43.606;1.472;2023-04-06T04:45:45;4.13;;;2.45;;
54235;SDS011;40151;43.606;1.472;2023-04-06T04:48:11;4.72;;;3.00;;
54235;SDS011;40151;43.606;1.472;2023-04-06T04:50:36;4.88;;;3.13;;
54235;SDS011;40151;43.606;1.472;2023-04-06T04:53:02;4.70;;;2.75;;
54235;SDS011;40151;43.606;1.472;2023-04-06T04:55:30;4.05;;;2.90;;
54235;SDS011;40151;43.606;1.472;2023-04-06T04:57:55;3.95;;;2.53;;
54235;SDS011;40151;43.606;1.472;2023-04-06T05:00:21;3.80;;;2.58;;
54235;SDS011;40151;43.606;1.472;2023-04-06T05:02:46;3.85;;;2.60;;
54235;SDS011;40151;43.606;1.472;2023-04-06T05:05:12;4.63;;;3.10;;
54235;SDS011;40151;43.606;1.472;2023-04-06T05:07:37;4.25;;;2.92;;
54235;SDS011;40151;43.606;1.472;2023-04-06T05:10:03;4.38;;;2.80;;
54235;SDS011;40151;43.606;1.472;2023-04-06T05:12:28;4.50;;;2.88;;
54235;SDS011;40151;43.606;1.472;2023-04-06T05:14:54;3.78;;;2.78;;
54235;SDS011;40151;43.606;1.472;2023-04-06T05:17:20;5.10;;;3.13;;
54235;SDS011;40151;43.606;1.472;2023-04-06T05:19:45;5.22;;;2.80;;
54235;SDS011;40151;43.606;1.472;2023-04-06T05:22:11;5.65;;;3.42;;
54235;SDS011;40151;43.606;1.472;2023-04-06T05:24:39;5.07;;;3.22;;
54235;SDS011;40151;43.606;1.472;2023-04-06T05:27:05;5.80;;;3.22;;
54235;SDS011;40151;43.606;1.472;2023-04-06T05:29:30;4.85;;;2.88;;
54235;SDS011;40151;43.606;1.472;2023-04-06T05:31:56;5.25;;;2.53;;
54235;SDS011;40151;43.606;1.472;2023-04-06T05:34:21;4.03;;;2.65;;
54235;SDS011;40151;43.606;1.472;2023-04-06T05:36:47;4.40;;;2.90;;
54235;SDS011;40151;43.606;1.472;2023-04-06T05:39:12;5.93;;;3.03;;
54235;SDS011;40151;43.606;1.472;2023-04-06T05:41:38;4.53;;;2.90;;
54235;SDS011;40151;43.606;1.472;2023-04-06T05:44:03;3.95;;;2.47;;
54235;SDS011;40151;43.606;1.472;2023-04-06T05:46:29;3.58;;;2.50;;
54235;SDS011;40151;43.606;1.472;2023-04-06T05:48:54;4.78;;;2.75;;
54235;SDS011;40151;43.606;1.472;2023-04-06T05:51:20;4.70;;;2.85;;
54235;SDS011;40151;43.606;1.472;2023-04-06T05:53:45;5.43;;;2.78;;
54235;SDS011;40151;43.606;1.472;2023-04-06T05:56:11;3.70;;;2.50;;
54235;SDS011;40151;43.606;1.472;2023-04-06T05:58:36;6.30;;;2.53;;
54235;SDS011;40151;43.606;1.472;2023-04-06T06:01:02;3.30;;;2.33;;
54235;SDS011;40151;43.606;1.472;2023-04-06T06:03:28;4.20;;;2.53;;
54235;SDS011;40151;43.606;1.472;2023-04-06T06:05:59;5.25;;;2.90;;
54235;SDS011;40151;43.606;1.472;2023-04-06T06:08:25;3.90;;;2.38;;
54235;SDS011;40151;43.606;1.472;2023-04-06T06:10:51;5.00;;;2.70;;
54235;SDS011;40151;43.606;1.472;2023-04-06T06:13:16;4.20;;;2.30;;
54235;SDS011;40151;43.606;1.472;2023-04-06T06:15:42;3.58;;;2.30;;
54235;SDS011;40151;43.606;1.472;2023-04-06T06:18:07;3.42;;;2.20;;
54235;SDS011;40151;43.606;1.472;2023-04-06T06:20:33;2.88;;;2.20;;
54235;SDS011;40151;43.606;1.472;2023-04-06T06:22:58;3.80;;;2.53;;
54235;SDS011;40151;43.606;1.472;2023-04-06T06:25:24;5.38;;;2.50;;
54235;SDS011;40151;43.606;1.472;2023-04-06T06:27:49;4.63;;;2.55;;
54235;SDS011;40151;43.606;1.472;2023-04-06T06:30:15;4.28;;;2.22;;
54235;SDS011;40151;43.606;1.472;2023-04-06T06:32:40;3.83;;;2.60;;
54235;SDS011;40151;43.606;1.472;2023-04-06T06:35:06;4.05;;;2.65;;
54235;SDS011;40151;43.606;1.472;2023-04-06T06:37:32;3.60;;;2.30;;
54235;SDS011;40151;43.606;1.472;2023-04-06T06:39:57;4.25;;;2.63;;
54235;SDS011;40151;43.606;1.472;2023-04-06T06:42:22;3.70;;;2.33;;
54235;SDS011;40151;43.606;1.472;2023-04-06T06:44:48;3.90;;;2.58;;
54235;SDS011;40151;43.606;1.472;2023-04-06T06:47:13;3.45;;;2.30;;
54235;SDS011;40151;43.606;1.472;2023-04-06T06:49:40;4.78;;;3.00;;
54235;SDS011;40151;43.606;1.472;2023-04-06T06:52:05;4.18;;;2.83;;
54235;SDS011;40151;43.606;1.472;2023-04-06T06:54:30;5.80;;;3.28;;
54235;SDS011;40151;43.606;1.472;2023-04-06T06:56:56;6.13;;;3.30;;
54235;SDS011;40151;43.606;1.472;2023-04-06T06:59:21;4.20;;;2.70;;
54235;SDS011;40151;43.606;1.472;2023-04-06T07:01:47;4.22;;;2.42;;
54235;SDS011;40151;43.606;1.472;2023-04-06T07:04:12;5.32;;;2.78;;
54235;SDS011;40151;43.606;1.472;2023-04-06T07:06:37;5.78;;;3.17;;
54235;SDS011;40151;43.606;1.472;2023-04-06T07:09:03;4.60;;;2.58;;
54235;SDS011;40151;43.606;1.472;2023-04-06T07:11:29;6.15;;;2.80;;
54235;SDS011;40151;43.606;1.472;2023-04-06T07:13:55;9.07;;;3.63;;
54235;SDS011;40151;43.606;1.472;2023-04-06T07:16:21;3.95;;;2.30;;
54235;SDS011;40151;43.606;1.472;2023-04-06T07:18:46;4.97;;;2.80;;
54235;SDS011;40151;43.606;1.472;2023-04-06T07:21:12;6.22;;;3.00;;
54235;SDS011;40151;43.606;1.472;2023-04-06T07:23:37;5.05;;;3.10;;
54235;SDS011;40151;43.606;1.472;2023-04-06T07:26:03;3.75;;;2.45;;
54235;SDS011;40151;43.606;1.472;2023-04-06T07:28:29;3.97;;;2.72;;
54235;SDS011;40151;43.606;1.472;2023-04-06T07:30:54;4.88;;;3.03;;
54235;SDS011;40151;43.606;1.472;2023-04-06T07:33:20;5.60;;;2.88;;
54235;SDS011;40151;43.606;1.472;2023-04-06T07:35:45;5.47;;;2.70;;
54235;SDS011;40151;43.606;1.472;2023-04-06T07:38:11;4.90;;;2.60;;
54235;SDS011;40151;43.606;1.472;2023-04-06T07:40:36;5.65;;;2.75;;
54235;SDS011;40151;43.606;1.472;2023-04-06T07:43:02;5.70;;;2.95;;
54235;SDS011;40151;43.606;1.472;2023-04-06T07:45:28;4.60;;;2.75;;
54235;SDS011;40151;43.606;1.472;2023-04-06T07:47:53;5.53;;;2.65;;
54235;SDS011;40151;43.606;1.472;2023-04-06T07:50:19;5.93;;;3.25;;
54235;SDS011;40151;43.606;1.472;2023-04-06T07:52:44;5.75;;;3.00;;
54235;SDS011;40151;43.606;1.472;2023-04-06T07:55:10;4.47;;;2.75;;
54235;SDS011;40151;43.606;1.472;2023-04-06T07:57:35;4.72;;;2.72;;
54235;SDS011;40151;43.606;1.472;2023-04-06T08:00:01;5.38;;;2.60;;
54235;SDS011;40151;43.606;1.472;2023-04-06T08:02:28;5.38;;;2.90;;
54235;SDS011;40151;43.606;1.472;2023-04-06T08:04:54;5.22;;;2.90;;
54235;SDS011;40151;43.606;1.472;2023-04-06T08:07:19;5.50;;;2.60;;
54235;SDS011;40151;43.606;1.472;2023-04-06T08:09:44;5.32;;;2.72;;
54235;SDS011;40151;43.606;1.472;2023-04-06T08:12:10;4.90;;;2.63;;
54235;SDS011;40151;43.606;1.472;2023-04-06T08:14:35;5.57;;;2.78;;
54235;SDS011;40151;43.606;1.472;2023-04-06T08:17:01;5.80;;;2.80;;
54235;SDS011;40151;43.606;1.472;2023-04-06T08:19:26;5.40;;;2.88;;
54235;SDS011;40151;43.606;1.472;2023-04-06T08:21:52;4.07;;;2.80;;
54235;SDS011;40151;43.606;1.472;2023-04-06T08:24:17;4.00;;;2.58;;
54235;SDS011;40151;43.606;1.472;2023-04-06T08:26:43;5.85;;;3.17;;
54235;SDS011;40151;43.606;1.472;2023-04-06T08:29:08;5.38;;;2.50;;
54235;SDS011;40151;43.606;1.472;2023-04-06T08:31:34;6.47;;;2.85;;
54235;SDS011;40151;43.606;1.472;2023-04-06T08:34:00;6.60;;;3.10;;
54235;SDS011;40151;43.606;1.472;2023-04-06T08:36:26;6.00;;;3.25;;
54235;SDS011;40151;43.606;1.472;2023-04-06T08:38:51;5.00;;;3.25;;
54235;SDS011;40151;43.606;1.472;2023-04-06T08:41:17;4.10;;;2.40;;
54235;SDS011;40151;43.606;1.472;2023-04-06T08:43:44;5.15;;;3.10;;
54235;SDS011;40151;43.606;1.472;2023-04-06T08:46:13;5.88;;;2.97;;
54235;SDS011;40151;43.606;1.472;2023-04-06T08:48:40;5.03;;;2.97;;
54235;SDS011;40151;43.606;1.472;2023-04-06T08:51:07;5.78;;;3.03;;
54235;SDS011;40151;43.606;1.472;2023-04-06T08:53:36;4.95;;;2.95;;
54235;SDS011;40151;43.606;1.472;2023-04-06T08:56:04;5.13;;;2.80;;
54235;SDS011;40151;43.606;1.472;2023-04-06T08:58:37;4.72;;;2.85;;
54235;SDS011;40151;43.606;1.472;2023-04-06T09:01:08;5.18;;;2.92;;
54235;SDS011;40151;43.606;1.472;2023-04-06T09:03:37;4.97;;;2.63;;
54235;SDS011;40151;43.606;1.472;2023-04-06T09:06:06;4.07;;;2.60;;
54235;SDS011;40151;43.606;1.472;2023-04-06T09:08:40;4.35;;;3.00;;
54235;SDS011;40151;43.606;1.472;2023-04-06T09:11:06;5.45;;;3.10;;
54235;SDS011;40151;43.606;1.472;2023-04-06T09:13:44;5.20;;;2.95;;
54235;SDS011;40151;43.606;1.472;2023-04-06T09:16:10;5.93;;;2.95;;
54235;SDS011;40151;43.606;1.472;2023-04-06T09:18:36;4.43;;;2.78;;
54235;SDS011;40151;43.606;1.472;2023-04-06T09:21:02;4.70;;;2.75;;
54235;SDS011;40151;43.606;1.472;2023-04-06T09:23:29;4.93;;;3.28;;
54235;SDS011;40151;43.606;1.472;2023-04-06T09:28:47;5.43;;;2.92;;
54235;SDS011;40151;43.606;1.472;2023-04-06T09:31:24;3.85;;;2.22;;
54235;SDS011;40151;43.606;1.472;2023-04-06T09:33:50;4.63;;;2.97;;
54235;SDS011;40151;43.606;1.472;2023-04-06T09:36:19;3.90;;;2.53;;
54235;SDS011;40151;43.606;1.472;2023-04-06T09:39:01;4.47;;;2.67;;
54235;SDS011;40151;43.606;1.472;2023-04-06T09:41:28;4.80;;;2.72;;
54235;SDS011;40151;43.606;1.472;2023-04-06T09:44:29;5.18;;;2.88;;
54235;SDS011;40151;43.606;1.472;2023-04-06T09:46:49;4.55;;;2.60;;
54235;SDS011;40151;43.606;1.472;2023-04-06T09:49:14;4.88;;;2.53;;
54235;SDS011;40151;43.606;1.472;2023-04-06T09:51:53;3.78;;;2.40;;
54235;SDS011;40151;43.606;1.472;2023-04-06T09:54:21;4.82;;;2.38;;
54235;SDS011;40151;43.606;1.472;2023-04-06T09:59:28;4.90;;;2.67;;
54235;SDS011;40151;43.606;1.472;2023-04-06T10:02:29;4.15;;;2.47;;
54235;SDS011;40151;43.606;1.472;2023-04-06T10:05:05;4.68;;;2.67;;
54235;SDS011;40151;43.606;1.472;2023-04-06T10:08:05;4.50;;;2.50;;
54235;SDS011;40151;43.606;1.472;2023-04-06T10:10:33;4.22;;;2.70;;
54235;SDS011;40151;43.606;1.472;2023-04-06T10:12:59;4.35;;;2.58;;
54235;SDS011;40151;43.606;1.472;2023-04-06T10:15:25;5.13;;;3.10;;
54235;SDS011;40151;43.606;1.472;2023-04-06T10:17:52;6.63;;;3.20;;
54235;SDS011;40151;43.606;1.472;2023-04-06T10:20:21;4.30;;;2.50;;
54235;SDS011;40151;43.606;1.472;2023-04-06T10:22:59;4.18;;;2.40;;
54235;SDS011;40151;43.606;1.472;2023-04-06T10:25:34;4.22;;;2.60;;
54235;SDS011;40151;43.606;1.472;2023-04-06T10:28:09;6.80;;;2.60;;
54235;SDS011;40151;43.606;1.472;2023-04-06T10:30:41;4.00;;;2.30;;
54235;SDS011;40151;43.606;1.472;2023-04-06T10:33:14;5.47;;;2.83;;
54235;SDS011;40151;43.606;1.472;2023-04-06T10:35:43;4.55;;;2.78;;
54235;SDS011;40151;43.606;1.472;2023-04-06T10:38:09;3.83;;;2.50;;
54235;SDS011;40151;43.606;1.472;2023-04-06T10:40:37;5.03;;;2.58;;
54235;SDS011;40151;43.606;1.472;2023-04-06T10:43:07;3.80;;;2.40;;
54235;SDS011;40151;43.606;1.472;2023-04-06T10:45:33;4.47;;;2.85;;
54235;SDS011;40151;43.606;1.472;2023-04-06T10:48:00;4.82;;;2.70;;
54235;SDS011;40151;43.606;1.472;2023-04-06T10:50:26;4.00;;;2.60;;
54235;SDS011;40151;43.606;1.472;2023-04-06T10:52:58;4.75;;;3.05;;
54235;SDS011;40151;43.606;1.472;2023-04-06T10:55:26;4.85;;;2.90;;
54235;SDS011;40151;43.606;1.472;2023-04-06T10:57:53;4.00;;;2.50;;
54235;SDS011;40151;43.606;1.472;2023-04-06T11:00:19;3.83;;;2.30;;
54235;SDS011;40151;43.606;1.472;2023-04-06T11:02:45;4.05;;;2.55;;
54235;SDS011;40151;43.606;1.472;2023-04-06T11:05:11;4.78;;;2.60;;
54235;SDS011;40151;43.606;1.472;2023-04-06T11:07:38;5.60;;;2.95;;
54235;SDS011;40151;43.606;1.472;2023-04-06T11:10:05;4.28;;;2.58;;
54235;SDS011;40151;43.606;1.472;2023-04-06T11:12:31;4.20;;;2.60;;
54235;SDS011;40151;43.606;1.472;2023-04-06T11:14:58;4.65;;;2.75;;
54235;SDS011;40151;43.606;1.472;2023-04-06T11:17:34;3.70;;;2.53;;
54235;SDS011;40151;43.606;1.472;2023-04-06T11:20:03;4.40;;;2.65;;
54235;SDS011;40151;43.606;1.472;2023-04-06T11:22:34;3.45;;;2.40;;
54235;SDS011;40151;43.606;1.472;2023-04-06T11:25:06;4.18;;;2.33;;
54235;SDS011;40151;43.606;1.472;2023-04-06T11:27:33;4.45;;;2.40;;
54235;SDS011;40151;43.606;1.472;2023-04-06T11:29:59;4.20;;;2.35;;
54235;SDS011;40151;43.606;1.472;2023-04-06T11:32:26;4.32;;;2.40;;
54235;SDS011;40151;43.606;1.472;2023-04-06T11:34:51;3.78;;;2.42;;
54235;SDS011;40151;43.606;1.472;2023-04-06T11:37:17;4.57;;;2.65;;
54235;SDS011;40151;43.606;1.472;2023-04-06T11:39:47;4.32;;;2.50;;
54235;SDS011;40151;43.606;1.472;2023-04-06T11:42:27;3.80;;;2.40;;
54235;SDS011;40151;43.606;1.472;2023-04-06T11:44:55;3.90;;;2.40;;
54235;SDS011;40151;43.606;1.472;2023-04-06T11:47:28;3.85;;;2.30;;
54235;SDS011;40151;43.606;1.472;2023-04-06T11:49:55;3.90;;;2.47;;
54235;SDS011;40151;43.606;1.472;2023-04-06T11:52:25;3.67;;;2.35;;
54235;SDS011;40151;43.606;1.472;2023-04-06T11:54:53;3.22;;;2.05;;
54235;SDS011;40151;43.606;1.472;2023-04-06T11:57:20;4.25;;;2.50;;
54235;SDS011;40151;43.606;1.472;2023-04-06T11:59:48;3.42;;;2.10;;
54235;SDS011;40151;43.606;1.472;2023-04-06T12:02:13;4.43;;;2.53;;
54235;SDS011;40151;43.606;1.472;2023-04-06T12:04:38;4.30;;;2.08;;
54235;SDS011;40151;43.606;1.472;2023-04-06T12:07:04;4.18;;;2.50;;
54235;SDS011;40151;43.606;1.472;2023-04-06T12:09:30;3.78;;;2.30;;
54235;SDS011;40151;43.606;1.472;2023-04-06T12:11:56;4.00;;;2.50;;
54235;SDS011;40151;43.606;1.472;2023-04-06T12:14:21;4.30;;;2.60;;
54235;SDS011;40151;43.606;1.472;2023-04-06T12:16:47;4.00;;;2.20;;
54235;SDS011;40151;43.606;1.472;2023-04-06T12:19:13;3.65;;;2.30;;
54235;SDS011;40151;43.606;1.472;2023-04-06T12:21:39;3.95;;;1.98;;
54235;SDS011;40151;43.606;1.472;2023-04-06T12:24:05;3.17;;;2.10;;
54235;SDS011;40151;43.606;1.472;2023-04-06T12:26:31;4.53;;;2.35;;
54235;SDS011;40151;43.606;1.472;2023-04-06T12:28:58;4.32;;;2.30;;
54235;SDS011;40151;43.606;1.472;2023-04-06T12:31:30;3.53;;;2.13;;
54235;SDS011;40151;43.606;1.472;2023-04-06T12:33:55;3.03;;;2.17;;
54235;SDS011;40151;43.606;1.472;2023-04-06T12:36:20;2.97;;;2.00;;
54235;SDS011;40151;43.606;1.472;2023-04-06T12:38:46;3.63;;;2.25;;
54235;SDS011;40151;43.606;1.472;2023-04-06T12:41:13;3.85;;;2.38;;
54235;SDS011;40151;43.606;1.472;2023-04-06T12:43:39;3.85;;;2.05;;
54235;SDS011;40151;43.606;1.472;2023-04-06T12:46:05;4.13;;;2.22;;
54235;SDS011;40151;43.606;1.472;2023-04-06T12:48:31;3.83;;;2.35;;
54235;SDS011;40151;43.606;1.472;2023-04-06T12:50:57;3.45;;;2.10;;
54235;SDS011;40151;43.606;1.472;2023-04-06T12:53:23;5.43;;;2.40;;
54235;SDS011;40151;43.606;1.472;2023-04-06T12:55:49;3.80;;;2.30;;
54235;SDS011;40151;43.606;1.472;2023-04-06T12:58:15;3.90;;;2.22;;
54235;SDS011;40151;43.606;1.472;2023-04-06T13:00:42;3.42;;;2.05;;
54235;SDS011;40151;43.606;1.472;2023-04-06T13:03:07;3.38;;;2.00;;
54235;SDS011;40151;43.606;1.472;2023-04-06T13:05:33;3.40;;;2.10;;
54235;SDS011;40151;43.606;1.472;2023-04-06T13:07:58;3.60;;;2.20;;
54235;SDS011;40151;43.606;1.472;2023-04-06T13:10:23;3.05;;;2.00;;
54235;SDS011;40151;43.606;1.472;2023-04-06T13:12:49;3.50;;;1.90;;
54235;SDS011;40151;43.606;1.472;2023-04-06T13:15:14;2.90;;;1.77;;
54235;SDS011;40151;43.606;1.472;2023-04-06T13:17:40;3.42;;;1.80;;
54235;SDS011;40151;43.606;1.472;2023-04-06T13:20:06;2.35;;;1.40;;
54235;SDS011;40151;43.606;1.472;2023-04-06T13:22:32;3.60;;;2.17;;
54235;SDS011;40151;43.606;1.472;2023-04-06T13:24:58;3.97;;;2.10;;
54235;SDS011;40151;43.606;1.472;2023-04-06T13:27:23;3.47;;;2.08;;
54235;SDS011;40151;43.606;1.472;2023-04-06T13:29:49;3.40;;;1.95;;
54235;SDS011;40151;43.606;1.472;2023-04-06T13:32:14;3.28;;;2.00;;
54235;SDS011;40151;43.606;1.472;2023-04-06T13:34:39;3.50;;;2.10;;
54235;SDS011;40151;43.606;1.472;2023-04-06T13:37:09;3.25;;;1.90;;
54235;SDS011;40151;43.606;1.472;2023-04-06T13:39:36;3.15;;;1.90;;
54235;SDS011;40151;43.606;1.472;2023-04-06T13:42:02;3.38;;;2.00;;
54235;SDS011;40151;43.606;1.472;2023-04-06T13:44:28;4.15;;;2.08;;
54235;SDS011;40151;43.606;1.472;2023-04-06T13:46:53;3.40;;;1.88;;
54235;SDS011;40151;43.606;1.472;2023-04-06T13:49:19;4.03;;;2.10;;
54235;SDS011;40151;43.606;1.472;2023-04-06T13:51:45;3.25;;;1.77;;
54235;SDS011;40151;43.606;1.472;2023-04-06T13:54:10;2.75;;;1.63;;
54235;SDS011;40151;43.606;1.472;2023-04-06T13:56:36;3.13;;;1.90;;
54235;SDS011;40151;43.606;1.472;2023-04-06T13:59:02;2.88;;;2.00;;
54235;SDS011;40151;43.606;1.472;2023-04-06T14:01:28;2.88;;;1.80;;
54235;SDS011;40151;43.606;1.472;2023-04-06T14:03:53;2.72;;;1.65;;
54235;SDS011;40151;43.606;1.472;2023-04-06T14:06:19;3.30;;;1.80;;
54235;SDS011;40151;43.606;1.472;2023-04-06T14:08:44;2.45;;;1.48;;
54235;SDS011;40151;43.606;1.472;2023-04-06T14:11:14;3.13;;;1.83;;
54235;SDS011;40151;43.606;1.472;2023-04-06T14:13:39;2.22;;;1.70;;
54235;SDS011;40151;43.606;1.472;2023-04-06T14:16:05;2.42;;;1.50;;
54235;SDS011;40151;43.606;1.472;2023-04-06T14:18:32;3.58;;;1.98;;
54235;SDS011;40151;43.606;1.472;2023-04-06T14:20:59;3.55;;;1.80;;
54235;SDS011;40151;43.606;1.472;2023-04-06T14:23:25;3.33;;;1.55;;
54235;SDS011;40151;43.606;1.472;2023-04-06T14:26:05;3.20;;;1.80;;
54235;SDS011;40151;43.606;1.472;2023-04-06T14:28:33;2.65;;;1.45;;
54235;SDS011;40151;43.606;1.472;2023-04-06T14:31:01;3.10;;;1.77;;
54235;SDS011;40151;43.606;1.472;2023-04-06T14:33:28;2.25;;;1.63;;
54235;SDS011;40151;43.606;1.472;2023-04-06T14:35:55;3.65;;;1.70;;
54235;SDS011;40151;43.606;1.472;2023-04-06T14:38:21;2.75;;;1.65;;
54235;SDS011;40151;43.606;1.472;2023-04-06T14:40:46;3.17;;;1.60;;
54235;SDS011;40151;43.606;1.472;2023-04-06T14:43:12;3.25;;;1.50;;
54235;SDS011;40151;43.606;1.472;2023-04-06T14:45:37;3.05;;;1.55;;
54235;SDS011;40151;43.606;1.472;2023-04-06T14:48:04;3.20;;;1.48;;
54235;SDS011;40151;43.606;1.472;2023-04-06T14:50:36;2.58;;;1.40;;